Plover Skycam (click)  Plover Skycam (click)


Rain radar more information rain snow radar



There are no active watches, warnings or advisories

Nearby METAR Reports

   
KISW - Wisconsin Rapids, WI
Updated: Jan 17 2018 10:54 pm
Clear  
Clear  
   Wind: WSW 9.2 mph
Wind: WSW 9.2 mph
Temperature: 19.4°F
Wind Chill: 8.6°F
Dew Point: 8.6°F
Humidity: 63%
Barometer: 30.03 inHg
Clouds: Clear
Visibility: 10 mi
Cloud details: Clear
KISW 180454Z AUTO 25008KT 10SM CLR M07/M13 A3003 RMK AO2 SLP188 T10671128
KSTE - Stevens Point, WI
Updated: Jan 17 2018 11:35 pm
Clear  
Clear  
   Wind: WSW 10.4 mph
Wind: WSW 10.4 mph
Temperature: 17.6°F
Wind Chill: 6.8°F
Dew Point: 10.4°F
Humidity: 73%
Barometer: 29.99 inHg
Clouds: Clear
Visibility: 10 mi
Cloud details: Clear
KSTE 180535Z AUTO 25009KT 10SM CLR M08/M12 A2999 RMK AO2 T10771123
KMFI - Marshfield, WI
Updated: Jan 17 2018 10:54 pm
Clear  
Clear  
   Wind: WSW 12.7 mph
Wind: WSW 12.7 mph
Temperature: 19.4°F
Wind Chill: 6.8°F
Dew Point: 10.4°F
Humidity: 68%
Barometer: 29.97 inHg
Clouds: Clear
Visibility: 10 mi
Cloud details: Clear
KMFI 180454Z AUTO 25011KT 10SM CLR M07/M12 A2997 RMK AO2 SLP176 T10721117 TSNO
KISW - Friendship, WI
Updated: Jan 17 2018 10:54 pm
Clear  
Clear  
   Wind: WSW 9.2 mph
Wind: WSW 9.2 mph
Temperature: 19.4°F
Wind Chill: 8.6°F
Dew Point: 8.6°F
Humidity: 63%
Barometer: 30.03 inHg
Clouds: Clear
Visibility: 10 mi
Cloud details: Clear
KISW 180454Z AUTO 25008KT 10SM CLR M07/M13 A3003 RMK AO2 SLP188 T10671128
KSTE - Waupaca, WI
Updated: Jan 17 2018 11:35 pm
Clear  
Clear  
   Wind: WSW 10.4 mph
Wind: WSW 10.4 mph
Temperature: 17.6°F
Wind Chill: 6.8°F
Dew Point: 10.4°F
Humidity: 73%
Barometer: 29.99 inHg
Clouds: Clear
Visibility: 10 mi
Cloud details: Clear
KSTE 180535Z AUTO 25009KT 10SM CLR M08/M12 A2999 RMK AO2 T10771123
KSTE - Custer, WI
Updated: Jan 17 2018 11:35 pm
Clear  
Clear  
   Wind: WSW 10.4 mph
Wind: WSW 10.4 mph
Temperature: 17.6°F
Wind Chill: 6.8°F
Dew Point: 10.4°F
Humidity: 73%
Barometer: 29.99 inHg
Clouds: Clear
Visibility: 10 mi
Cloud details: Clear
KSTE 180535Z AUTO 25009KT 10SM CLR M08/M12 A2999 RMK AO2 T10771123
KEAU - Eau Claire, WI
Updated: Jan 17 2018 10:56 pm
Clear  
Clear  
   Wind: SW 12.7 mph
Wind: SW 12.7 mph
Temperature: 23°F
Wind Chill: 10.4°F
Dew Point: 15.8°F
Humidity: 74%
Barometer: 30 inHg
Clouds: Clear
Visibility: 9 mi
Cloud details: Clear
KEAU 180456Z AUTO 23011KT 9SM CLR M05/M09 A3000 RMK AO2 SNE01B37E51 SLP175 P0000 T10501094
  

Script developed by  Saratoga-weather.org Adapted for the template by  Weerstation Leuven